TimeCDT,TemperatureF,Dew PointF,Humidity,Sea Level PressureIn,VisibilityMPH,Wind Direction,Wind SpeedMPH,Gust SpeedMPH,PrecipitationIn,Events,Conditions,WindDirDegrees,DateUTC
12:53 AM,36.0,21.0,55,30.29,10.0,NNE,5.8,-,N/A,,Clear,30,2013-04-03 05:53:00
1:53 AM,36.0,21.0,55,30.28,10.0,NE,3.5,-,N/A,,Clear,50,2013-04-03 06:53:00
2:53 AM,35.1,21.0,57,30.28,10.0,Calm,Calm,-,N/A,,Clear,0,2013-04-03 07:53:00
3:53 AM,33.1,23.0,66,30.26,10.0,Calm,Calm,-,N/A,,Clear,0,2013-04-03 08:53:00
4:53 AM,34.0,21.9,61,30.25,10.0,Calm,Calm,-,N/A,,Clear,0,2013-04-03 09:53:00
5:53 AM,34.0,21.9,61,30.29,10.0,East,3.5,-,N/A,,Clear,100,2013-04-03 10:53:00
6:53 AM,33.1,23.0,66,30.34,10.0,NNE,3.5,-,N/A,,Clear,30,2013-04-03 11:53:00
7:53 AM,36.0,26.1,67,30.36,10.0,East,4.6,-,N/A,,Clear,80,2013-04-03 12:53:00
8:53 AM,41.0,25.0,53,30.34,10.0,ENE,8.1,-,N/A,,Clear,70,2013-04-03 13:53:00
9:53 AM,45.0,21.9,40,30.33,10.0,East,10.4,-,N/A,,Clear,90,2013-04-03 14:53:00
10:53 AM,48.0,19.0,32,30.33,10.0,NE,15.0,21.9,N/A,,Clear,50,2013-04-03 15:53:00
11:53 AM,50.0,19.0,29,30.31,10.0,NE,15.0,24.2,N/A,,Clear,40,2013-04-03 16:53:00
12:53 PM,51.1,19.9,29,30.30,10.0,NE,18.4,25.3,N/A,,Clear,50,2013-04-03 17:53:00
1:53 PM,52.0,21.0,30,30.29,10.0,East,13.8,17.3,N/A,,Clear,100,2013-04-03 18:53:00
2:53 PM,52.0,21.9,31,30.27,10.0,East,16.1,20.7,N/A,,Clear,90,2013-04-03 19:53:00
3:53 PM,53.1,23.0,31,30.26,10.0,East,16.1,19.6,N/A,,Clear,80,2013-04-03 20:53:00
4:53 PM,52.0,21.9,31,30.23,10.0,East,15.0,20.7,N/A,,Clear,80,2013-04-03 21:53:00
5:53 PM,51.1,21.0,31,30.24,10.0,ENE,10.4,19.6,N/A,,Clear,70,2013-04-03 22:53:00
6:53 PM,48.9,23.0,36,30.23,10.0,NE,9.2,-,N/A,,Clear,50,2013-04-03 23:53:00
7:53 PM,48.0,23.0,37,30.22,10.0,NE,8.1,-,N/A,,Clear,50,2013-04-04 00:53:00
8:53 PM,46.0,24.1,42,30.23,10.0,NE,9.2,-,N/A,,Clear,40,2013-04-04 01:53:00
9:53 PM,46.9,21.9,37,30.24,10.0,ENE,6.9,-,N/A,,Clear,60,2013-04-04 02:53:00
10:53 PM,46.0,21.9,39,30.21,10.0,ENE,10.4,-,N/A,,Clear,60,2013-04-04 03:53:00
11:53 PM,45.0,23.0,42,30.20,10.0,ENE,9.2,-,N/A,,Clear,70,2013-04-04 04:53:00